Time;durP1;ratioP1;P1;durP2;ratioP2;P2;SDS_P1;SDS_P2;PMS_P1;PMS_P2;Temp;Humidity;BMP_temperature;BMP_pressure;BME280_temperature;BME280_humidity;BME280_pressure;Samples;Min_cycle;Max_cycle;Signal;HPM_P1;HPM_P2
2024/01/03 00:01:35;;;;;;;4.53;2.60;;;9.60;99.50;;;;;;4956191;29;20035;-54
2024/01/03 00:04:01;;;;;;;5.05;2.88;;;9.60;99.70;;;;;;4937922;29;20035;-54
2024/01/03 00:06:33;;;;;;;5.03;2.40;;;9.60;99.30;;;;;;4955860;28;20027;-55
2024/01/03 00:08:59;;;;;;;3.85;2.38;;;9.60;99.50;;;;;;4955955;29;20031;-54
2024/01/03 00:11:29;;;;;;;3.72;2.22;;;9.60;99.80;;;;;;4956283;29;20395;-54
2024/01/03 00:14:10;;;;;;;5.05;2.63;;;9.60;99.90;;;;;;4956242;29;20027;-54
2024/01/03 00:16:39;;;;;;;2.08;1.85;;;9.50;99.90;;;;;;4955989;29;20035;-54
2024/01/03 00:19:06;;;;;;;3.63;2.15;;;9.30;99.90;;;;;;4953193;29;20058;-55
2024/01/03 00:21:33;;;;;;;3.80;2.38;;;9.20;99.90;;;;;;4953242;29;20179;-54
2024/01/03 00:24:03;;;;;;;5.90;2.50;;;9.20;99.90;;;;;;4953448;29;20051;-54
2024/01/03 00:26:30;;;;;;;6.72;2.20;;;9.30;99.90;;;;;;4953279;29;20027;-54
2024/01/03 00:28:57;;;;;;;3.05;2.40;;;9.30;99.90;;;;;;4953307;29;20094;-55
2024/01/03 00:31:28;;;;;;;5.43;3.13;;;9.30;99.90;;;;;;4937165;29;20036;-54
2024/01/03 00:33:55;;;;;;;4.13;1.88;;;9.30;99.90;;;;;;4952928;29;20146;-55
2024/01/03 00:36:20;;;;;;;2.67;1.70;;;9.30;99.90;;;;;;4953435;29;20030;-54
2024/01/03 00:38:46;;;;;;;3.88;2.08;;;9.30;99.90;;;;;;4953339;29;20048;-54
2024/01/03 00:41:15;;;;;;;3.85;2.03;;;9.30;99.90;;;;;;4952941;29;20031;-54
2024/01/03 00:43:40;;;;;;;2.45;1.60;;;9.40;99.90;;;;;;4953259;29;20038;-54
2024/01/03 00:46:08;;;;;;;2.80;1.83;;;9.50;99.90;;;;;;4953005;29;20031;-55
2024/01/03 00:48:34;;;;;;;2.40;1.50;;;9.50;99.90;;;;;;4953105;29;20577;-55
2024/01/03 00:51:03;;;;;;;2.30;1.70;;;9.50;99.90;;;;;;4954968;29;20035;-55
2024/01/03 00:53:30;;;;;;;1.45;1.27;;;9.40;99.90;;;;;;4955532;29;20039;-53
2024/01/03 00:55:56;;;;;;;3.50;1.77;;;9.50;99.80;;;;;;4955513;29;20454;-55
2024/01/03 00:58:22;;;;;;;4.78;2.78;;;9.60;99.60;;;;;;4955136;29;20038;-55
2024/01/03 01:00:49;;;;;;;2.13;1.35;;;9.70;99.10;;;;;;4955257;29;20027;-54
2024/01/03 01:03:16;;;;;;;3.20;1.77;;;9.80;99.30;;;;;;4955077;29;20378;-55
2024/01/03 01:05:43;;;;;;;2.65;1.55;;;9.80;99.70;;;;;;4955018;29;20023;-53
2024/01/03 01:08:09;;;;;;;2.80;1.60;;;9.80;99.60;;;;;;4954882;29;20058;-54
2024/01/03 01:10:34;;;;;;;4.50;1.88;;;9.80;99.40;;;;;;4921021;29;20042;-53
2024/01/03 01:13:00;;;;;;;3.50;1.40;;;9.90;98.60;;;;;;4921035;29;20036;-55
2024/01/03 01:15:26;;;;;;;4.00;2.40;;;10.00;98.20;;;;;;4955048;29;20125;-54
2024/01/03 01:17:51;;;;;;;3.15;2.10;;;10.10;98.20;;;;;;4953739;28;20112;-53
2024/01/03 01:20:17;;;;;;;2.63;1.55;;;10.00;98.90;;;;;;4955165;29;20058;-56
2024/01/03 01:22:43;;;;;;;3.40;1.58;;;10.00;98.60;;;;;;4955139;29;20027;-54
2024/01/03 01:25:09;;;;;;;4.22;2.05;;;10.10;98.10;;;;;;4954577;29;20031;-53
2024/01/03 01:27:35;;;;;;;6.93;2.47;;;10.20;98.00;;;;;;4888977;29;20051;-54
2024/01/03 01:30:00;;;;;;;2.22;1.52;;;10.10;98.30;;;;;;4936465;29;20043;-54
2024/01/03 01:32:26;;;;;;;3.45;2.08;;;10.10;98.30;;;;;;4954364;29;20039;-54
2024/01/03 01:34:52;;;;;;;3.17;1.75;;;10.10;98.50;;;;;;4920624;29;20050;-54
2024/01/03 01:37:17;;;;;;;2.90;1.80;;;10.00;99.10;;;;;;4920588;29;20035;-55
2024/01/03 01:39:44;;;;;;;4.07;1.90;;;10.00;99.80;;;;;;4954448;29;20120;-55
2024/01/03 01:42:10;;;;;;;5.25;1.70;;;9.90;99.60;;;;;;4954277;29;20482;-56
2024/01/03 01:44:36;;;;;;;3.03;1.50;;;9.90;99.50;;;;;;4954779;29;20027;-54
2024/01/03 01:47:05;;;;;;;6.00;2.20;;;9.90;99.20;;;;;;4954477;29;20090;-53
2024/01/03 01:49:32;;;;;;;4.53;2.03;;;10.00;98.90;;;;;;4954354;29;20097;-55
2024/01/03 01:51:59;;;;;;;4.00;2.10;;;10.10;98.60;;;;;;4954637;29;20039;-54
2024/01/03 01:54:25;;;;;;;5.70;2.60;;;10.20;98.00;;;;;;4954377;29;20079;-54
2024/01/03 01:56:51;;;;;;;3.88;2.10;;;10.30;98.50;;;;;;4936148;29;20063;-54
2024/01/03 01:59:20;;;;;;;3.58;2.10;;;10.30;98.40;;;;;;4935734;29;20054;-54
2024/01/03 02:01:46;;;;;;;4.95;2.45;;;10.30;98.30;;;;;;4954290;29;20027;-55
2024/01/03 02:04:13;;;;;;;4.45;2.33;;;10.40;98.10;;;;;;4954446;29;20081;-54
2024/01/03 02:06:39;;;;;;;4.60;2.53;;;;;;;;;;4954149;29;20110;-55
2024/01/03 02:09:06;;;;;;;5.68;2.72;;;;;;;;;;4954254;29;20673;-54
2024/01/03 02:11:32;;;;;;;5.00;2.95;;;;;;;;;;4954120;29;20038;-54
2024/01/03 02:13:58;;;;;;;6.68;3.03;;;;;;;;;;4919896;29;20171;-53
2024/01/03 02:16:24;;;;;;;6.72;3.35;;;;;;;;;;4953885;29;20108;-54
2024/01/03 02:18:50;;;;;;;4.45;2.58;;;;;;;;;;4953571;29;20044;-55
2024/01/03 02:21:16;;;;;;;7.15;3.35;;;;;;;;;;4953437;29;20037;-54
2024/01/03 02:23:45;;;;;;;7.10;3.28;;;9.30;99.90;;;;;;4936736;29;20125;-54
2024/01/03 02:26:11;;;;;;;7.60;3.25;;;10.30;98.60;;;;;;4935688;29;20368;-55
2024/01/03 02:28:37;;;;;;;6.30;3.63;;;10.40;98.90;;;;;;4953415;28;20134;-54
2024/01/03 02:31:03;;;;;;;6.22;2.72;;;10.30;99.00;;;;;;4953877;29;20114;-54
2024/01/03 02:33:28;;;;;;;5.68;2.70;;;10.40;98.80;;;;;;4903850;29;20031;-55
2024/01/03 02:35:54;;;;;;;6.72;2.88;;;10.30;99.30;;;;;;4953614;29;20031;-55
2024/01/03 02:38:23;;;;;;;2.92;1.92;;;10.40;98.80;;;;;;4953635;29;20047;-55
2024/01/03 02:40:51;;;;;;;5.35;3.33;;;10.50;98.50;;;;;;4953719;29;20035;-56
2024/01/03 02:43:17;;;;;;;3.63;2.30;;;10.50;98.50;;;;;;4953889;29;20127;-55
2024/01/03 02:45:43;;;;;;;7.88;2.95;;;10.40;98.60;;;;;;4953966;29;20166;-54
2024/01/03 02:48:08;;;;;;;4.97;2.70;;;10.50;98.60;;;;;;4953610;29;20031;-54
2024/01/03 02:50:34;;;;;;;3.17;1.80;;;10.50;98.60;;;;;;4935196;29;20083;-54
2024/01/03 02:53:01;;;;;;;3.75;1.70;;;10.50;98.40;;;;;;4919512;29;20036;-56
2024/01/03 02:55:27;;;;;;;8.02;2.47;;;10.50;98.50;;;;;;4953474;29;20042;-55
2024/01/03 02:57:53;;;;;;;3.38;2.30;;;10.60;98.70;;;;;;4903596;29;20031;-55
2024/01/03 03:00:19;;;;;;;2.25;1.80;;;10.80;98.30;;;;;;4953951;29;20341;-53
2024/01/03 03:02:44;;;;;;;5.38;2.35;;;11.00;97.80;;;;;;4936254;29;20031;-54
2024/01/03 03:05:10;;;;;;;4.78;2.30;;;11.10;97.60;;;;;;4953100;29;20039;-54
2024/01/03 03:07:37;;;;;;;4.97;2.30;;;;;;;;;;4935271;29;20046;-56
2024/01/03 03:10:03;;;;;;;5.72;2.85;;;11.30;99.90;;;;;;4953543;29;20054;-55
2024/01/03 03:12:28;;;;;;;3.42;2.17;;;11.50;96.70;;;;;;4953338;29;20385;-56
2024/01/03 03:14:54;;;;;;;4.72;1.90;;;11.50;96.30;;;;;;4953859;29;20038;-54
2024/01/03 03:17:20;;;;;;;5.68;2.75;;;11.60;96.30;;;;;;4953604;29;20372;-55
2024/01/03 03:19:46;;;;;;;5.72;2.38;;;;;;;;;;4903696;29;20459;-54
2024/01/03 03:22:13;;;;;;;2.05;1.27;;;;;;;;;;4953308;29;20059;-54
2024/01/03 03:24:39;;;;;;;7.25;2.42;;;11.80;99.90;;;;;;4953206;29;20501;-54
2024/01/03 03:27:04;;;;;;;8.52;3.55;;;11.80;96.00;;;;;;4952955;29;20126;-55
2024/01/03 03:29:31;;;;;;;5.00;2.30;;;;;;;;;;4953272;29;20621;-55
2024/01/03 03:31:57;;;;;;;3.55;2.40;;;12.10;99.90;;;;;;4953101;29;20027;-54
2024/01/03 03:34:22;;;;;;;5.43;2.63;;;12.10;96.10;;;;;;4935970;29;20460;-55
2024/01/03 03:36:48;;;;;;;5.22;2.47;;;12.10;96.20;;;;;;4919077;29;20130;-54
2024/01/03 03:39:14;;;;;;;4.82;2.75;;;;;;;;;;4903477;28;20057;-55
2024/01/03 03:41:40;;;;;;;2.42;1.30;;;;;;;;;;4956126;29;20070;-55
2024/01/03 03:44:06;;;;;;;2.35;1.88;;;12.20;99.90;;;;;;4956633;29;20031;-54
2024/01/03 03:46:32;;;;;;;2.22;1.27;;;12.20;97.10;;;;;;4956500;29;20020;-55
2024/01/03 03:48:57;;;;;;;1.17;0.95;;;12.30;97.30;;;;;;4956437;29;20027;-54
2024/01/03 03:51:23;;;;;;;1.50;0.80;;;12.30;97.30;;;;;;4938395;29;20035;-55
2024/01/03 03:53:49;;;;;;;1.52;0.95;;;12.40;97.50;;;;;;4956553;29;20035;-55
2024/01/03 03:56:25;;;;;;;2.35;1.17;;;12.40;97.40;;;;;;4956203;29;20034;-53
2024/01/03 03:58:51;;;;;;;1.92;0.95;;;12.50;97.30;;;;;;4956665;29;20086;-54
2024/01/03 04:01:18;;;;;;;1.42;0.95;;;;;;;;;;4956575;29;20035;-54
2024/01/03 04:03:44;;;;;;;2.33;1.35;;;12.80;99.90;;;;;;4956163;29;20480;-54
2024/01/03 04:06:12;;;;;;;1.50;1.02;;;12.60;97.80;;;;;;4922164;29;20395;-54
2024/01/03 04:08:40;;;;;;;2.40;1.10;;;12.70;97.80;;;;;;4938479;29;20634;-55
2024/01/03 04:11:06;;;;;;;2.95;0.85;;;12.70;97.90;;;;;;4955809;29;20179;-55
2024/01/03 04:13:32;;;;;;;1.80;0.80;;;12.70;97.40;;;;;;4956022;29;20099;-55
2024/01/03 04:16:02;;;;;;;1.48;0.80;;;12.80;96.80;;;;;;4921802;29;20082;-55
2024/01/03 04:18:28;;;;;;;1.42;0.80;;;12.90;96.70;;;;;;4956190;29;20032;-54
2024/01/03 04:20:54;;;;;;;1.20;0.70;;;12.90;96.70;;;;;;4955984;29;20027;-55
2024/01/03 04:23:20;;;;;;;3.30;0.90;;;12.90;97.00;;;;;;4956110;29;20032;-55
2024/01/03 04:25:46;;;;;;;1.63;0.80;;;12.90;96.80;;;;;;4906332;29;20039;-55
2024/01/03 04:28:12;;;;;;;0.85;0.65;;;12.90;96.70;;;;;;4955535;29;20086;-55
2024/01/03 04:30:37;;;;;;;1.80;0.68;;;13.00;97.10;;;;;;4955836;29;20078;-54
2024/01/03 04:33:03;;;;;;;1.90;0.98;;;13.00;97.00;;;;;;4955511;29;20031;-55
2024/01/03 04:35:29;;;;;;;0.90;0.75;;;13.00;97.30;;;;;;4890374;29;20118;-54
2024/01/03 04:37:56;;;;;;;0.50;0.47;;;13.00;97.40;;;;;;4955429;29;20111;-55
2024/01/03 04:40:22;;;;;;;1.50;0.80;;;13.10;96.30;;;;;;4955600;29;20494;-54
2024/01/03 04:42:47;;;;;;;0.75;0.70;;;13.10;96.70;;;;;;4955787;29;20031;-55
2024/01/03 04:45:13;;;;;;;1.55;1.00;;;13.10;97.20;;;;;;4955336;29;20045;-54
2024/01/03 04:47:40;;;;;;;1.65;0.90;;;13.10;96.90;;;;;;4955717;29;20027;-55
2024/01/03 04:50:06;;;;;;;2.30;0.90;;;13.20;97.10;;;;;;4906207;29;20394;-55
2024/01/03 04:52:32;;;;;;;1.23;0.73;;;13.10;97.10;;;;;;4954990;28;20031;-55
2024/01/03 04:54:57;;;;;;;1.52;0.80;;;13.20;97.00;;;;;;4955279;29;20114;-54
2024/01/03 04:57:23;;;;;;;2.03;1.10;;;13.20;97.20;;;;;;4955249;29;20034;-55
2024/01/03 04:59:49;;;;;;;1.80;0.70;;;13.20;96.90;;;;;;4955225;29;20066;-55
2024/01/03 05:02:15;;;;;;;3.45;0.73;;;13.20;96.70;;;;;;4955139;29;20031;-54
2024/01/03 05:04:40;;;;;;;0.70;0.60;;;13.30;96.60;;;;;;4955116;29;20032;-55
2024/01/03 05:07:06;;;;;;;2.25;0.60;;;13.30;96.40;;;;;;4936808;29;20086;-55
2024/01/03 05:09:34;;;;;;;2.03;0.68;;;13.30;96.60;;;;;;4937904;29;20078;-54
2024/01/03 05:12:02;;;;;;;1.52;1.00;;;13.30;96.80;;;;;;4921637;29;20055;-55
2024/01/03 05:14:30;;;;;;;4.75;1.05;;;13.30;96.90;;;;;;4954934;29;20051;-54
2024/01/03 05:16:56;;;;;;;6.35;1.83;;;13.30;96.70;;;;;;4955070;29;20035;-55
2024/01/03 05:19:22;;;;;;;1.77;1.02;;;13.30;97.00;;;;;;4936460;29;20134;-56
2024/01/03 05:21:48;;;;;;;1.90;1.00;;;13.30;96.50;;;;;;4954521;29;20023;-55
2024/01/03 05:24:14;;;;;;;3.17;1.23;;;13.40;96.20;;;;;;4954481;29;20039;-55
2024/01/03 05:26:40;;;;;;;6.97;2.13;;;13.30;96.30;;;;;;4954497;29;20052;-55
2024/01/03 05:29:06;;;;;;;5.10;3.05;;;13.20;96.70;;;;;;4953972;29;20174;-54
2024/01/03 05:31:31;;;;;;;7.45;4.65;;;13.10;96.70;;;;;;4954338;29;20032;-55
2024/01/03 05:33:57;;;;;;;7.25;3.72;;;13.00;97.10;;;;;;4920529;29;20055;-55
2024/01/03 05:36:23;;;;;;;4.10;2.78;;;12.80;97.30;;;;;;4920573;29;20035;-55
2024/01/03 05:38:48;;;;;;;4.10;2.50;;;12.60;97.60;;;;;;4954438;29;20031;-54
2024/01/03 05:41:14;;;;;;;4.28;2.60;;;12.60;97.60;;;;;;4954453;29;20094;-54
2024/01/03 05:43:40;;;;;;;4.55;2.65;;;12.60;97.50;;;;;;4954411;29;20031;-54
2024/01/03 05:46:06;;;;;;;7.60;3.55;;;12.60;97.00;;;;;;4953271;29;20042;-54
2024/01/03 05:48:32;;;;;;;11.13;2.80;;;12.80;96.90;;;;;;4954490;29;20058;-55
2024/01/03 05:50:57;;;;;;;4.72;2.50;;;12.90;96.60;;;;;;4954031;29;20066;-53
2024/01/03 05:53:23;;;;;;;6.85;3.70;;;13.00;96.40;;;;;;4952865;29;20090;-54
2024/01/03 05:55:49;;;;;;;7.60;4.28;;;;;;;;;;4953435;29;20058;-54
2024/01/03 05:58:16;;;;;;;9.98;5.38;;;;;;;;;;4924295;29;20051;-54
2024/01/03 06:00:42;;;;;;;10.70;7.07;;;;;;;;;;4952908;29;20039;-55
2024/01/03 06:03:08;;;;;;;9.52;5.53;;;;;;;;;;4922138;29;20032;-53
2024/01/03 06:05:34;;;;;;;4.93;3.30;;;;;;;;;;4951373;29;20031;-54
2024/01/03 06:08:00;;;;;;;2.22;1.58;;;12.90;95.70;;;;;;4953720;29;20086;-54
2024/01/03 06:10:26;;;;;;;5.15;2.03;;;12.70;96.70;;;;;;4919555;29;20106;-55
2024/01/03 06:12:51;;;;;;;3.35;1.80;;;12.40;97.50;;;;;;4953107;29;20173;-54
2024/01/03 06:15:17;;;;;;;3.50;1.90;;;12.30;98.10;;;;;;4953618;29;20051;-53
2024/01/03 06:17:43;;;;;;;2.65;1.83;;;12.40;97.60;;;;;;4953868;29;20031;-55
2024/01/03 06:20:09;;;;;;;3.30;1.60;;;12.50;97.30;;;;;;4953468;29;20089;-55
2024/01/03 06:22:35;;;;;;;3.03;1.50;;;12.60;96.90;;;;;;4915630;29;20081;-54
2024/01/03 06:25:00;;;;;;;2.85;1.48;;;12.60;96.80;;;;;;4913466;29;20079;-53
2024/01/03 06:27:26;;;;;;;2.60;1.63;;;12.60;96.80;;;;;;4952788;29;20047;-53
2024/01/03 06:29:52;;;;;;;2.70;1.88;;;12.60;96.80;;;;;;4953082;29;20495;-53
2024/01/03 06:32:17;;;;;;;6.78;3.78;;;12.70;96.90;;;;;;4904096;29;20066;-54
2024/01/03 06:34:43;;;;;;;9.82;7.03;;;12.70;96.90;;;;;;4953770;29;20064;-55
2024/01/03 06:37:09;;;;;;;16.33;7.72;;;12.80;96.80;;;;;;4904060;29;20074;-55
2024/01/03 06:39:35;;;;;;;10.35;6.40;;;;;;;;;;4953800;29;20095;-53
2024/01/03 06:42:01;;;;;;;9.07;5.15;;;13.20;99.90;;;;;;4953567;29;20035;-58
2024/01/03 06:44:26;;;;;;;18.80;11.95;;;13.20;99.70;;;;;;4904065;29;20090;-53
2024/01/03 06:46:52;;;;;;;13.50;8.85;;;13.10;99.90;;;;;;4953789;29;20099;-54
2024/01/03 06:49:18;;;;;;;9.85;5.07;;;13.20;96.70;;;;;;4904045;29;20031;-53
2024/01/03 06:51:44;;;;;;;8.50;3.20;;;13.50;98.10;;;;;;4953402;29;20031;-54
2024/01/03 06:54:10;;;;;;;107.53;41.60;;;13.40;96.70;;;;;;4953812;29;20040;-55
2024/01/03 06:56:35;;;;;;;10.98;6.38;;;13.40;97.70;;;;;;4954048;29;20064;-55
2024/01/03 06:59:01;;;;;;;9.23;4.85;;;13.40;97.80;;;;;;4935221;29;20446;-53
2024/01/03 07:01:27;;;;;;;8.05;4.60;;;13.40;98.00;;;;;;4953411;29;20505;-55
2024/01/03 07:03:53;;;;;;;8.20;4.90;;;13.40;98.80;;;;;;4953483;29;20086;-54
2024/01/03 07:06:19;;;;;;;6.93;3.88;;;13.30;99.50;;;;;;4953707;29;20126;-55
2024/01/03 07:08:46;;;;;;;6.93;3.85;;;13.30;99.50;;;;;;4904054;29;20118;-54
2024/01/03 07:11:12;;;;;;;5.55;3.45;;;13.30;99.50;;;;;;4953570;29;20133;-55
2024/01/03 07:13:38;;;;;;;9.93;6.55;;;13.30;99.80;;;;;;4919465;29;20039;-54
2024/01/03 07:16:04;;;;;;;20.25;12.65;;;13.30;99.20;;;;;;4955370;28;20364;-53
2024/01/03 07:18:30;;;;;;;24.13;16.98;;;13.00;99.80;;;;;;4907318;29;20078;-54
2024/01/03 07:20:56;;;;;;;30.85;21.17;;;12.80;99.90;;;;;;4957054;29;20051;-54
2024/01/03 07:23:21;;;;;;;22.05;13.20;;;12.90;99.90;;;;;;4935315;29;20475;-54
2024/01/03 07:25:47;;;;;;;11.52;8.68;;;13.00;99.90;;;;;;4937780;29;20120;-53
2024/01/03 07:28:14;;;;;;;8.63;5.88;;;13.10;99.90;;;;;;4937764;29;20051;-55
2024/01/03 07:30:41;;;;;;;8.18;5.40;;;13.20;99.90;;;;;;4937570;29;20058;-55
2024/01/03 07:33:07;;;;;;;11.90;7.55;;;13.30;99.90;;;;;;4887793;29;20036;-54
2024/01/03 07:35:32;;;;;;;10.15;7.45;;;13.30;99.90;;;;;;4937700;29;20406;-53
2024/01/03 07:37:58;;;;;;;9.18;7.55;;;13.40;99.90;;;;;;4919543;29;20484;-53
2024/01/03 07:40:24;;;;;;;7.40;5.53;;;13.50;99.90;;;;;;4937563;29;20047;-53
2024/01/03 07:42:50;;;;;;;25.92;16.48;;;13.50;99.90;;;;;;4878295;29;20046;-53
2024/01/03 07:45:16;;;;;;;10.55;7.82;;;13.50;99.70;;;;;;4891099;29;20444;-54
2024/01/03 07:47:42;;;;;;;10.32;8.23;;;13.60;99.70;;;;;;4955910;29;20522;-54
2024/01/03 07:50:08;;;;;;;10.25;8.90;;;13.60;99.90;;;;;;4906405;29;20032;-53
2024/01/03 07:52:33;;;;;;;6.78;5.18;;;13.70;99.90;;;;;;4922256;29;20391;-52
2024/01/03 07:54:59;;;;;;;8.10;3.45;;;13.70;99.90;;;;;;4955670;29;20027;-52
2024/01/03 07:57:25;;;;;;;21.98;15.48;;;13.80;99.90;;;;;;4956009;29;20032;-54
2024/01/03 07:59:51;;;;;;;13.82;10.38;;;13.70;99.50;;;;;;4956081;29;20028;-55
2024/01/03 08:02:17;;;;;;;16.33;10.30;;;13.70;99.40;;;;;;4956003;29;20102;-52
2024/01/03 08:04:43;;;;;;;11.00;8.43;;;13.70;99.70;;;;;;4955621;29;20123;-55
2024/01/03 08:07:09;;;;;;;33.88;21.35;;;;;;;;;;4913995;29;20039;-53
2024/01/03 08:09:37;;;;;;;19.55;14.18;;;13.70;99.50;;;;;;4955506;29;20136;-54
2024/01/03 08:12:08;;;;;;;35.13;22.77;;;13.80;99.50;;;;;;4955357;29;20039;-55
2024/01/03 08:14:35;;;;;;;21.63;15.63;;;;;;;;;;4953733;29;20032;-52
2024/01/03 08:17:01;;;;;;;26.27;18.77;;;;;;;;;;4951776;29;20118;-55
2024/01/03 08:19:28;;;;;;;31.50;24.67;;;;;;;;;;4913417;29;20047;-53
2024/01/03 08:21:54;;;;;;;41.38;31.42;;;;;;;;;;4955247;29;20034;-53
2024/01/03 08:24:20;;;;;;;12.13;10.05;;;13.80;99.90;;;;;;4955590;29;20037;-53
2024/01/03 08:26:47;;;;;;;9.77;7.80;;;13.40;99.90;;;;;;4954812;28;20062;-53
2024/01/03 08:29:13;;;;;;;5.50;4.43;;;13.20;99.90;;;;;;4955843;29;20039;-54
2024/01/03 08:31:39;;;;;;;4.82;3.47;;;13.20;99.90;;;;;;4955671;29;20039;-53
2024/01/03 08:34:05;;;;;;;6.93;4.63;;;13.10;99.90;;;;;;4955639;29;20094;-54
2024/01/03 08:36:42;;;;;;;7.72;4.13;;;12.80;99.90;;;;;;4956016;29;20031;-55
2024/01/03 08:39:08;;;;;;;6.35;3.70;;;12.70;99.90;;;;;;4955474;29;20522;-55
2024/01/03 08:41:34;;;;;;;3.65;2.63;;;12.60;99.90;;;;;;4955603;29;20047;-54
2024/01/03 08:44:02;;;;;;;4.78;3.17;;;;;;;;;;4955774;29;20113;-52
2024/01/03 08:46:34;;;;;;;3.78;2.45;;;;;;;;;;4954154;29;20031;-53
2024/01/03 08:49:02;;;;;;;3.72;2.40;;;12.20;99.90;;;;;;4952799;29;20046;-52
2024/01/03 08:51:29;;;;;;;4.40;2.53;;;12.00;99.90;;;;;;4954226;29;20079;-52
2024/01/03 08:53:55;;;;;;;4.47;2.50;;;12.00;99.90;;;;;;4921160;29;20062;-55
2024/01/03 08:56:21;;;;;;;6.22;4.10;;;11.90;99.90;;;;;;4930843;29;20499;-55
2024/01/03 08:58:47;;;;;;;6.18;3.85;;;11.90;99.90;;;;;;4953052;29;20041;-55
2024/01/03 09:01:20;;;;;;;8.40;5.68;;;12.00;99.90;;;;;;4955077;29;20074;-53
2024/01/03 09:03:46;;;;;;;5.22;3.13;;;12.00;99.90;;;;;;4913631;29;20052;-54
2024/01/03 09:06:14;;;;;;;6.40;3.80;;;11.90;99.90;;;;;;4913523;29;20127;-54
2024/01/03 09:08:40;;;;;;;5.43;2.85;;;12.00;99.90;;;;;;4913593;29;20052;-54
2024/01/03 09:11:11;;;;;;;3.78;1.63;;;11.90;99.90;;;;;;4881982;29;20048;-54
2024/01/03 09:13:40;;;;;;;10.50;5.85;;;11.90;99.90;;;;;;4913493;29;20052;-54
2024/01/03 09:16:07;;;;;;;4.80;3.45;;;11.90;99.90;;;;;;4913045;29;20059;-54
2024/01/03 09:18:33;;;;;;;4.10;1.75;;;11.90;99.90;;;;;;4913405;29;20141;-53
2024/01/03 09:21:02;;;;;;;5.60;2.83;;;11.90;99.90;;;;;;4913227;29;20113;-54
2024/01/03 09:23:28;;;;;;;4.63;3.05;;;12.00;99.90;;;;;;4913328;29;20048;-54
2024/01/03 09:25:55;;;;;;;7.68;5.80;;;12.00;99.90;;;;;;4913367;29;20040;-54
2024/01/03 09:28:25;;;;;;;15.10;11.02;;;12.10;99.90;;;;;;4913035;29;20076;-53
2024/01/03 09:30:51;;;;;;;16.08;11.68;;;12.30;99.90;;;;;;4912959;29;20038;-53
2024/01/03 09:33:17;;;;;;;14.52;9.23;;;12.60;99.90;;;;;;4912182;29;20071;-54
2024/01/03 09:35:44;;;;;;;8.88;6.15;;;12.80;99.90;;;;;;4949180;29;20448;-53
2024/01/03 09:38:10;;;;;;;6.78;5.20;;;12.90;99.90;;;;;;4951810;28;20049;-63
2024/01/03 09:40:35;;;;;;;8.02;5.47;;;13.00;99.90;;;;;;4953815;29;20031;-57
2024/01/03 09:43:05;;;;;;;15.07;10.88;;;13.10;99.90;;;;;;4953034;29;20085;-56
2024/01/03 09:45:31;;;;;;;20.33;15.35;;;13.20;99.90;;;;;;4953642;29;20035;-54
2024/01/03 09:47:57;;;;;;;21.55;13.88;;;13.10;99.90;;;;;;4953365;29;20046;-54
2024/01/03 09:50:23;;;;;;;20.63;13.30;;;12.80;99.90;;;;;;4884816;29;20535;-54
2024/01/03 09:52:49;;;;;;;8.57;4.93;;;12.70;99.90;;;;;;4953298;29;20035;-54
2024/01/03 09:55:15;;;;;;;6.30;4.05;;;12.50;99.90;;;;;;4953288;29;20141;-53
2024/01/03 09:57:42;;;;;;;6.43;4.00;;;12.50;99.90;;;;;;4952775;29;20035;-55
2024/01/03 10:00:09;;;;;;;8.55;5.95;;;12.50;99.90;;;;;;4934803;29;20058;-56
2024/01/03 10:02:37;;;;;;;5.60;3.13;;;12.60;99.90;;;;;;4953339;29;20035;-56
2024/01/03 10:05:06;;;;;;;3.90;2.65;;;12.50;99.90;;;;;;4952621;29;20031;-56
2024/01/03 10:07:34;;;;;;;4.85;2.38;;;12.40;99.90;;;;;;4953102;29;20041;-56
2024/01/03 10:09:59;;;;;;;4.80;1.90;;;12.40;99.90;;;;;;4952598;29;20093;-56
2024/01/03 10:12:29;;;;;;;3.90;2.50;;;12.40;99.90;;;;;;4953003;29;20031;-55
2024/01/03 10:14:56;;;;;;;6.95;4.45;;;12.50;99.90;;;;;;4952502;29;20031;-56
2024/01/03 10:17:22;;;;;;;13.77;9.70;;;12.60;99.90;;;;;;4952054;29;20122;-56
2024/01/03 10:19:48;;;;;;;14.18;9.38;;;12.60;99.90;;;;;;4953187;29;20065;-56
2024/01/03 10:22:18;;;;;;;16.88;11.35;;;12.70;99.90;;;;;;4953048;29;20498;-55
2024/01/03 10:24:46;;;;;;;28.95;16.92;;;12.80;99.90;;;;;;4952984;29;20419;-55
2024/01/03 10:27:11;;;;;;;28.30;16.85;;;12.80;99.90;;;;;;4952864;29;20055;-56
2024/01/03 10:29:38;;;;;;;8.93;5.40;;;12.80;99.90;;;;;;4952984;29;20027;-56
2024/01/03 10:32:09;;;;;;;3.72;2.08;;;12.70;99.90;;;;;;4953044;29;20122;-55
2024/01/03 10:34:36;;;;;;;3.63;2.47;;;12.80;99.90;;;;;;4953009;29;20066;-56
2024/01/03 10:37:03;;;;;;;4.97;1.92;;;12.70;99.90;;;;;;4918792;29;20051;-56
2024/01/03 10:39:31;;;;;;;2.92;2.10;;;12.80;99.90;;;;;;4934590;29;20083;-56
2024/01/03 10:41:58;;;;;;;5.75;3.38;;;12.80;99.90;;;;;;4952930;29;20387;-56
2024/01/03 10:44:25;;;;;;;3.75;2.65;;;13.00;99.90;;;;;;4916335;29;20530;-56
2024/01/03 10:46:53;;;;;;;4.13;2.30;;;13.10;99.90;;;;;;4952985;29;20035;-55
2024/01/03 10:49:19;;;;;;;2.58;1.85;;;13.20;99.90;;;;;;4954041;28;20061;-55
2024/01/03 10:51:48;;;;;;;2.40;1.52;;;13.30;99.90;;;;;;4956858;29;20475;-55
2024/01/03 10:54:15;;;;;;;3.20;1.83;;;13.40;99.90;;;;;;4955060;29;20031;-57
2024/01/03 10:56:51;;;;;;;3.33;2.10;;;13.30;99.90;;;;;;4919687;29;20051;-56
2024/01/03 10:59:18;;;;;;;6.13;3.03;;;13.40;99.90;;;;;;4904782;29;20050;-56
2024/01/03 11:02:03;;;;;;;6.90;3.80;;;13.50;99.90;;;;;;4956166;29;20042;-55
2024/01/03 11:04:35;;;;;;;6.15;3.38;;;13.50;99.90;;;;;;4922345;29;20039;-57
2024/01/03 11:07:22;;;;;;;3.85;2.65;;;13.40;99.90;;;;;;4956634;29;20062;-57
2024/01/03 11:09:48;;;;;;;3.92;2.78;;;13.40;99.90;;;;;;4956380;29;20043;-57
2024/01/03 11:12:13;;;;;;;5.15;2.83;;;13.50;99.90;;;;;;4955807;29;20142;-56
2024/01/03 11:14:39;;;;;;;3.33;1.95;;;13.50;99.90;;;;;;4955258;29;20571;-57
2024/01/03 11:17:06;;;;;;;3.55;1.83;;;13.30;99.90;;;;;;4956267;29;20039;-56
2024/01/03 11:19:33;;;;;;;2.45;1.70;;;13.60;99.90;;;;;;4956145;29;20040;-56
2024/01/03 11:22:02;;;;;;;3.13;1.58;;;13.10;99.90;;;;;;4955962;29;20484;-57
2024/01/03 11:24:28;;;;;;;7.95;3.05;;;13.10;99.90;;;;;;4960113;28;20034;-57
2024/01/03 11:26:54;;;;;;;6.53;4.53;;;13.20;99.90;;;;;;4957658;28;20083;-56
2024/01/03 11:29:36;;;;;;;20.50;14.40;;;;;;;;;;4956087;29;20039;-56
2024/01/03 11:32:05;;;;;;;27.48;17.80;;;13.60;99.90;;;;;;4955982;29;20118;-57
2024/01/03 11:34:40;;;;;;;22.20;15.52;;;13.70;99.90;;;;;;4953018;29;20062;-56
2024/01/03 11:37:27;;;;;;;37.58;24.05;;;14.00;99.90;;;;;;4955985;29;20031;-56
2024/01/03 11:39:54;;;;;;;19.48;13.23;;;14.20;99.90;;;;;;4956179;29;20043;-56
2024/01/03 11:42:37;;;;;;;15.30;9.50;;;14.50;99.90;;;;;;4921819;29;20093;-56
2024/01/03 11:45:07;;;;;;;17.33;12.43;;;;;;;;;;4955849;29;20656;-57
2024/01/03 11:47:34;;;;;;;15.63;10.68;;;14.70;99.90;;;;;;4956131;29;20106;-56
2024/01/03 11:50:03;;;;;;;8.88;7.15;;;14.80;99.90;;;;;;4921734;29;20199;-56
2024/01/03 11:52:32;;;;;;;4.10;2.30;;;14.60;99.90;;;;;;4955658;29;20487;-56
2024/01/03 11:55:10;;;;;;;11.07;7.80;;;14.50;99.90;;;;;;4955592;29;20118;-56
2024/01/03 11:57:38;;;;;;;5.18;2.35;;;14.60;99.90;;;;;;4955446;29;20035;-56
2024/01/03 12:00:05;;;;;;;6.22;3.83;;;14.50;99.90;;;;;;4921430;28;20134;-56
2024/01/03 12:02:31;;;;;;;4.63;3.50;;;14.70;99.90;;;;;;4952601;29;20535;-57
2024/01/03 12:05:01;;;;;;;5.63;4.00;;;14.80;99.90;;;;;;4955859;29;20116;-56
2024/01/03 12:07:30;;;;;;;3.47;1.90;;;14.60;99.90;;;;;;4955724;29;20035;-56
2024/01/03 12:09:57;;;;;;;5.00;2.35;;;14.30;99.90;;;;;;4955389;29;20043;-57
2024/01/03 12:12:23;;;;;;;3.95;2.55;;;14.50;99.90;;;;;;4955573;29;20407;-58
2024/01/03 12:14:55;;;;;;;4.05;2.78;;;14.50;99.90;;;;;;4956391;29;20031;-56
2024/01/03 12:17:32;;;;;;;4.90;3.00;;;14.40;99.90;;;;;;4956199;29;20090;-57
2024/01/03 12:20:07;;;;;;;5.38;3.28;;;14.30;99.90;;;;;;4955903;29;20043;-57
2024/01/03 12:22:34;;;;;;;9.23;5.93;;;14.30;99.90;;;;;;4956074;29;20082;-57
2024/01/03 12:25:00;;;;;;;3.75;2.47;;;14.50;99.90;;;;;;4955841;29;20045;-57
2024/01/03 12:27:26;;;;;;;3.85;2.58;;;14.40;99.90;;;;;;4955826;29;20134;-56
2024/01/03 12:30:08;;;;;;;4.43;2.40;;;14.30;99.90;;;;;;4938688;29;20027;-56
2024/01/03 12:32:35;;;;;;;15.43;9.65;;;14.10;99.90;;;;;;4955795;29;20368;-56
2024/01/03 12:35:01;;;;;;;8.40;6.13;;;14.30;99.90;;;;;;4955904;29;20043;-57
2024/01/03 12:37:49;;;;;;;5.38;3.30;;;14.10;99.90;;;;;;4915026;29;20540;-56
2024/01/03 12:40:16;;;;;;;5.50;2.97;;;13.90;99.90;;;;;;4915038;29;20052;-56
2024/01/03 12:42:44;;;;;;;4.95;3.15;;;13.90;99.90;;;;;;4915272;29;20048;-56
2024/01/03 12:45:10;;;;;;;4.78;2.97;;;13.90;99.90;;;;;;4899179;29;20076;-56
2024/01/03 12:47:36;;;;;;;6.35;2.63;;;14.00;99.90;;;;;;4915219;29;20039;-57
2024/01/03 12:50:03;;;;;;;2.88;1.85;;;14.00;99.90;;;;;;4914994;29;20076;-56
2024/01/03 12:52:30;;;;;;;3.65;2.40;;;;;;;;;;4899067;29;20044;-56
2024/01/03 12:54:56;;;;;;;6.80;4.40;;;14.40;99.90;;;;;;4914928;29;20176;-57